sensor_id;sensor_type;location;lat;lon;timestamp;P1;durP1;ratioP1;P2;durP2;ratioP2
59824;SDS011;45703;50.898;6.054;2022-12-15T00:01:00;24.15;;;11.70;;
59824;SDS011;45703;50.898;6.054;2022-12-15T00:03:44;23.88;;;12.05;;
59824;SDS011;45703;50.898;6.054;2022-12-15T00:06:29;23.60;;;12.43;;
59824;SDS011;45703;50.898;6.054;2022-12-15T00:09:13;22.95;;;11.45;;
59824;SDS011;45703;50.898;6.054;2022-12-15T00:11:57;20.63;;;11.07;;
59824;SDS011;45703;50.898;6.054;2022-12-15T00:14:41;20.52;;;11.65;;
59824;SDS011;45703;50.898;6.054;2022-12-15T00:17:25;28.27;;;11.90;;
59824;SDS011;45703;50.898;6.054;2022-12-15T00:20:09;23.23;;;11.02;;
59824;SDS011;45703;50.898;6.054;2022-12-15T00:22:53;26.02;;;12.82;;
59824;SDS011;45703;50.898;6.054;2022-12-15T00:25:37;23.98;;;12.52;;
59824;SDS011;45703;50.898;6.054;2022-12-15T00:28:21;27.92;;;14.55;;
59824;SDS011;45703;50.898;6.054;2022-12-15T00:31:04;26.98;;;12.75;;
59824;SDS011;45703;50.898;6.054;2022-12-15T00:33:49;26.05;;;13.88;;
59824;SDS011;45703;50.898;6.054;2022-12-15T00:36:32;28.75;;;12.77;;
59824;SDS011;45703;50.898;6.054;2022-12-15T00:39:16;26.65;;;12.25;;
59824;SDS011;45703;50.898;6.054;2022-12-15T00:41:42;28.88;;;14.27;;
59824;SDS011;45703;50.898;6.054;2022-12-15T00:44:07;25.95;;;12.60;;
59824;SDS011;45703;50.898;6.054;2022-12-15T00:46:32;30.65;;;14.35;;
59824;SDS011;45703;50.898;6.054;2022-12-15T00:49:16;22.33;;;12.10;;
59824;SDS011;45703;50.898;6.054;2022-12-15T00:52:00;21.85;;;11.50;;
59824;SDS011;45703;50.898;6.054;2022-12-15T00:54:44;29.25;;;13.23;;
59824;SDS011;45703;50.898;6.054;2022-12-15T00:57:28;24.58;;;12.13;;
59824;SDS011;45703;50.898;6.054;2022-12-15T01:00:12;23.38;;;12.45;;
59824;SDS011;45703;50.898;6.054;2022-12-15T01:02:56;24.70;;;12.77;;
59824;SDS011;45703;50.898;6.054;2022-12-15T01:05:40;26.05;;;12.23;;
59824;SDS011;45703;50.898;6.054;2022-12-15T01:08:24;24.15;;;11.73;;
59824;SDS011;45703;50.898;6.054;2022-12-15T01:11:08;30.60;;;13.85;;
59824;SDS011;45703;50.898;6.054;2022-12-15T01:13:52;23.13;;;11.63;;
59824;SDS011;45703;50.898;6.054;2022-12-15T01:16:37;25.60;;;12.23;;
59824;SDS011;45703;50.898;6.054;2022-12-15T01:19:20;34.13;;;13.75;;
59824;SDS011;45703;50.898;6.054;2022-12-15T01:22:05;22.20;;;11.98;;
59824;SDS011;45703;50.898;6.054;2022-12-15T01:24:31;24.50;;;12.60;;
59824;SDS011;45703;50.898;6.054;2022-12-15T01:26:56;31.73;;;12.98;;
59824;SDS011;45703;50.898;6.054;2022-12-15T01:29:22;29.55;;;14.27;;
59824;SDS011;45703;50.898;6.054;2022-12-15T01:31:47;26.50;;;12.25;;
59824;SDS011;45703;50.898;6.054;2022-12-15T01:34:13;26.08;;;13.63;;
59824;SDS011;45703;50.898;6.054;2022-12-15T01:36:38;30.40;;;13.32;;
59824;SDS011;45703;50.898;6.054;2022-12-15T01:39:03;24.38;;;12.98;;
59824;SDS011;45703;50.898;6.054;2022-12-15T01:41:29;26.63;;;13.95;;
59824;SDS011;45703;50.898;6.054;2022-12-15T01:44:12;25.83;;;13.40;;
59824;SDS011;45703;50.898;6.054;2022-12-15T01:46:42;23.20;;;12.52;;
59824;SDS011;45703;50.898;6.054;2022-12-15T01:49:14;23.73;;;12.60;;
59824;SDS011;45703;50.898;6.054;2022-12-15T01:51:47;20.45;;;12.18;;
59824;SDS011;45703;50.898;6.054;2022-12-15T01:54:28;25.15;;;13.43;;
59824;SDS011;45703;50.898;6.054;2022-12-15T01:57:11;28.23;;;12.93;;
59824;SDS011;45703;50.898;6.054;2022-12-15T01:59:41;23.92;;;12.15;;
59824;SDS011;45703;50.898;6.054;2022-12-15T02:02:13;30.90;;;13.82;;
59824;SDS011;45703;50.898;6.054;2022-12-15T02:04:39;26.67;;;13.43;;
59824;SDS011;45703;50.898;6.054;2022-12-15T02:07:05;26.15;;;13.02;;
59824;SDS011;45703;50.898;6.054;2022-12-15T02:09:31;24.75;;;11.80;;
59824;SDS011;45703;50.898;6.054;2022-12-15T02:12:00;27.13;;;13.00;;
59824;SDS011;45703;50.898;6.054;2022-12-15T02:17:40;24.20;;;11.55;;
59824;SDS011;45703;50.898;6.054;2022-12-15T02:22:59;23.98;;;12.60;;
59824;SDS011;45703;50.898;6.054;2022-12-15T02:28:42;24.95;;;12.18;;
59824;SDS011;45703;50.898;6.054;2022-12-15T02:37:35;26.83;;;12.95;;
59824;SDS011;45703;50.898;6.054;2022-12-15T02:39:59;32.88;;;12.65;;
59824;SDS011;45703;50.898;6.054;2022-12-15T02:42:26;25.08;;;11.40;;
59824;SDS011;45703;50.898;6.054;2022-12-15T02:51:00;18.80;;;10.50;;
59824;SDS011;45703;50.898;6.054;2022-12-15T02:56:18;23.83;;;12.05;;
59824;SDS011;45703;50.898;6.054;2022-12-15T03:03:50;25.60;;;13.90;;
59824;SDS011;45703;50.898;6.054;2022-12-15T03:06:17;24.00;;;13.23;;
59824;SDS011;45703;50.898;6.054;2022-12-15T03:08:43;24.50;;;12.60;;
59824;SDS011;45703;50.898;6.054;2022-12-15T03:11:11;29.83;;;13.73;;
59824;SDS011;45703;50.898;6.054;2022-12-15T03:13:36;25.63;;;13.48;;
59824;SDS011;45703;50.898;6.054;2022-12-15T03:16:02;24.85;;;11.90;;
59824;SDS011;45703;50.898;6.054;2022-12-15T03:18:27;28.30;;;12.60;;
59824;SDS011;45703;50.898;6.054;2022-12-15T03:20:52;26.75;;;12.57;;
59824;SDS011;45703;50.898;6.054;2022-12-15T03:23:18;27.83;;;12.18;;
59824;SDS011;45703;50.898;6.054;2022-12-15T03:25:44;25.40;;;12.00;;
59824;SDS011;45703;50.898;6.054;2022-12-15T03:28:10;27.52;;;13.15;;
59824;SDS011;45703;50.898;6.054;2022-12-15T03:30:35;24.58;;;13.63;;
59824;SDS011;45703;50.898;6.054;2022-12-15T03:33:01;26.02;;;12.95;;
59824;SDS011;45703;50.898;6.054;2022-12-15T03:35:26;28.92;;;14.35;;
59824;SDS011;45703;50.898;6.054;2022-12-15T03:37:52;25.88;;;12.70;;
59824;SDS011;45703;50.898;6.054;2022-12-15T03:40:17;28.98;;;12.98;;
59824;SDS011;45703;50.898;6.054;2022-12-15T03:42:43;26.90;;;12.95;;
59824;SDS011;45703;50.898;6.054;2022-12-15T03:47:42;29.17;;;13.75;;
59824;SDS011;45703;50.898;6.054;2022-12-15T03:50:08;29.40;;;13.82;;
59824;SDS011;45703;50.898;6.054;2022-12-15T03:52:34;25.25;;;11.95;;
59824;SDS011;45703;50.898;6.054;2022-12-15T03:55:00;24.80;;;12.77;;
59824;SDS011;45703;50.898;6.054;2022-12-15T03:57:26;24.65;;;12.50;;
59824;SDS011;45703;50.898;6.054;2022-12-15T03:59:51;23.00;;;11.73;;
59824;SDS011;45703;50.898;6.054;2022-12-15T04:02:16;24.67;;;11.13;;
59824;SDS011;45703;50.898;6.054;2022-12-15T04:04:42;20.35;;;12.20;;
59824;SDS011;45703;50.898;6.054;2022-12-15T04:07:07;24.75;;;12.35;;
59824;SDS011;45703;50.898;6.054;2022-12-15T04:09:33;25.55;;;12.40;;
59824;SDS011;45703;50.898;6.054;2022-12-15T04:11:59;20.70;;;11.55;;
59824;SDS011;45703;50.898;6.054;2022-12-15T04:14:27;26.45;;;12.32;;
59824;SDS011;45703;50.898;6.054;2022-12-15T04:16:55;25.52;;;13.27;;
59824;SDS011;45703;50.898;6.054;2022-12-15T04:19:20;26.63;;;11.10;;
59824;SDS011;45703;50.898;6.054;2022-12-15T04:22:04;22.90;;;12.00;;
59824;SDS011;45703;50.898;6.054;2022-12-15T04:24:30;24.25;;;12.70;;
59824;SDS011;45703;50.898;6.054;2022-12-15T04:27:13;26.38;;;12.82;;
59824;SDS011;45703;50.898;6.054;2022-12-15T04:29:57;24.58;;;11.82;;
59824;SDS011;45703;50.898;6.054;2022-12-15T04:32:41;17.85;;;10.30;;
59824;SDS011;45703;50.898;6.054;2022-12-15T04:35:26;24.08;;;11.35;;
59824;SDS011;45703;50.898;6.054;2022-12-15T04:38:10;28.10;;;12.00;;
59824;SDS011;45703;50.898;6.054;2022-12-15T04:40:54;28.80;;;12.60;;
59824;SDS011;45703;50.898;6.054;2022-12-15T04:43:38;20.70;;;10.45;;
59824;SDS011;45703;50.898;6.054;2022-12-15T04:46:22;25.38;;;11.68;;
59824;SDS011;45703;50.898;6.054;2022-12-15T04:49:06;25.20;;;12.50;;
59824;SDS011;45703;50.898;6.054;2022-12-15T04:51:50;21.48;;;11.30;;
59824;SDS011;45703;50.898;6.054;2022-12-15T04:54:34;26.80;;;12.13;;
59824;SDS011;45703;50.898;6.054;2022-12-15T04:57:18;20.90;;;10.77;;
59824;SDS011;45703;50.898;6.054;2022-12-15T05:00:02;24.05;;;11.93;;
59824;SDS011;45703;50.898;6.054;2022-12-15T05:02:47;23.90;;;11.40;;
59824;SDS011;45703;50.898;6.054;2022-12-15T05:05:31;23.02;;;10.93;;
59824;SDS011;45703;50.898;6.054;2022-12-15T05:08:15;21.50;;;11.35;;
59824;SDS011;45703;50.898;6.054;2022-12-15T05:10:59;25.52;;;12.00;;
59824;SDS011;45703;50.898;6.054;2022-12-15T05:13:42;24.08;;;12.00;;
59824;SDS011;45703;50.898;6.054;2022-12-15T05:16:26;29.17;;;12.65;;
59824;SDS011;45703;50.898;6.054;2022-12-15T05:19:10;26.60;;;11.90;;
59824;SDS011;45703;50.898;6.054;2022-12-15T05:21:54;24.58;;;12.43;;
59824;SDS011;45703;50.898;6.054;2022-12-15T05:24:38;18.83;;;11.95;;
59824;SDS011;45703;50.898;6.054;2022-12-15T05:27:22;24.35;;;11.13;;
59824;SDS011;45703;50.898;6.054;2022-12-15T05:30:06;19.90;;;10.82;;
59824;SDS011;45703;50.898;6.054;2022-12-15T05:32:51;25.73;;;12.25;;
59824;SDS011;45703;50.898;6.054;2022-12-15T05:35:16;22.48;;;12.95;;
59824;SDS011;45703;50.898;6.054;2022-12-15T05:37:42;29.15;;;13.68;;
59824;SDS011;45703;50.898;6.054;2022-12-15T05:40:07;23.85;;;11.07;;
59824;SDS011;45703;50.898;6.054;2022-12-15T05:42:33;24.05;;;12.52;;
59824;SDS011;45703;50.898;6.054;2022-12-15T05:44:58;27.52;;;12.80;;
59824;SDS011;45703;50.898;6.054;2022-12-15T05:47:24;29.73;;;14.48;;
59824;SDS011;45703;50.898;6.054;2022-12-15T05:49:50;20.95;;;10.77;;
59824;SDS011;45703;50.898;6.054;2022-12-15T05:52:15;24.75;;;11.57;;
59824;SDS011;45703;50.898;6.054;2022-12-15T05:54:41;21.83;;;11.98;;
59824;SDS011;45703;50.898;6.054;2022-12-15T05:57:06;25.63;;;12.73;;
59824;SDS011;45703;50.898;6.054;2022-12-15T05:59:32;24.77;;;12.07;;
59824;SDS011;45703;50.898;6.054;2022-12-15T06:01:57;25.70;;;12.55;;
59824;SDS011;45703;50.898;6.054;2022-12-15T06:04:22;22.77;;;11.90;;
59824;SDS011;45703;50.898;6.054;2022-12-15T06:06:48;26.38;;;13.05;;
59824;SDS011;45703;50.898;6.054;2022-12-15T06:09:14;25.73;;;12.88;;
59824;SDS011;45703;50.898;6.054;2022-12-15T06:11:39;21.63;;;11.95;;
59824;SDS011;45703;50.898;6.054;2022-12-15T06:14:05;23.52;;;11.52;;
59824;SDS011;45703;50.898;6.054;2022-12-15T06:16:30;25.38;;;11.55;;
59824;SDS011;45703;50.898;6.054;2022-12-15T06:18:58;27.63;;;12.45;;
59824;SDS011;45703;50.898;6.054;2022-12-15T06:21:25;24.88;;;12.43;;
59824;SDS011;45703;50.898;6.054;2022-12-15T06:23:53;23.58;;;11.95;;
59824;SDS011;45703;50.898;6.054;2022-12-15T06:26:23;28.55;;;13.23;;
59824;SDS011;45703;50.898;6.054;2022-12-15T06:28:53;25.60;;;12.18;;
59824;SDS011;45703;50.898;6.054;2022-12-15T06:31:20;22.10;;;12.00;;
59824;SDS011;45703;50.898;6.054;2022-12-15T06:33:47;25.85;;;13.02;;
59824;SDS011;45703;50.898;6.054;2022-12-15T06:36:13;25.40;;;12.57;;
59824;SDS011;45703;50.898;6.054;2022-12-15T06:38:39;31.25;;;13.30;;
59824;SDS011;45703;50.898;6.054;2022-12-15T06:41:09;26.13;;;12.57;;
59824;SDS011;45703;50.898;6.054;2022-12-15T06:43:36;23.08;;;12.68;;
59824;SDS011;45703;50.898;6.054;2022-12-15T06:46:02;26.75;;;13.57;;
59824;SDS011;45703;50.898;6.054;2022-12-15T06:48:28;27.35;;;12.88;;
59824;SDS011;45703;50.898;6.054;2022-12-15T06:50:53;25.20;;;12.32;;
59824;SDS011;45703;50.898;6.054;2022-12-15T06:53:20;23.67;;;11.85;;
59824;SDS011;45703;50.898;6.054;2022-12-15T06:55:47;25.77;;;13.73;;
59824;SDS011;45703;50.898;6.054;2022-12-15T06:58:13;26.90;;;12.48;;
59824;SDS011;45703;50.898;6.054;2022-12-15T07:00:40;23.85;;;11.95;;
59824;SDS011;45703;50.898;6.054;2022-12-15T07:03:08;24.63;;;12.50;;
59824;SDS011;45703;50.898;6.054;2022-12-15T07:05:37;29.17;;;13.38;;
59824;SDS011;45703;50.898;6.054;2022-12-15T07:08:02;24.55;;;12.52;;
59824;SDS011;45703;50.898;6.054;2022-12-15T07:10:27;23.88;;;11.73;;
59824;SDS011;45703;50.898;6.054;2022-12-15T07:12:54;23.98;;;12.60;;
59824;SDS011;45703;50.898;6.054;2022-12-15T07:15:20;22.67;;;11.13;;
59824;SDS011;45703;50.898;6.054;2022-12-15T07:17:46;24.48;;;11.98;;
59824;SDS011;45703;50.898;6.054;2022-12-15T07:20:11;35.45;;;14.50;;
59824;SDS011;45703;50.898;6.054;2022-12-15T07:22:36;28.13;;;12.35;;
59824;SDS011;45703;50.898;6.054;2022-12-15T07:25:02;25.17;;;12.73;;
59824;SDS011;45703;50.898;6.054;2022-12-15T07:27:27;30.65;;;13.48;;
59824;SDS011;45703;50.898;6.054;2022-12-15T07:29:53;24.67;;;12.77;;
59824;SDS011;45703;50.898;6.054;2022-12-15T07:32:18;28.55;;;13.00;;
59824;SDS011;45703;50.898;6.054;2022-12-15T07:34:44;22.02;;;12.05;;
59824;SDS011;45703;50.898;6.054;2022-12-15T07:37:10;23.13;;;12.00;;
59824;SDS011;45703;50.898;6.054;2022-12-15T07:39:35;23.85;;;12.57;;
59824;SDS011;45703;50.898;6.054;2022-12-15T07:42:00;23.55;;;12.60;;
59824;SDS011;45703;50.898;6.054;2022-12-15T07:44:26;25.48;;;12.88;;
59824;SDS011;45703;50.898;6.054;2022-12-15T07:46:52;30.60;;;13.20;;
59824;SDS011;45703;50.898;6.054;2022-12-15T07:49:18;26.63;;;12.63;;
59824;SDS011;45703;50.898;6.054;2022-12-15T07:51:44;25.75;;;13.13;;
59824;SDS011;45703;50.898;6.054;2022-12-15T07:54:10;24.60;;;12.82;;
59824;SDS011;45703;50.898;6.054;2022-12-15T07:56:39;23.38;;;12.82;;
59824;SDS011;45703;50.898;6.054;2022-12-15T07:59:05;27.48;;;12.68;;
59824;SDS011;45703;50.898;6.054;2022-12-15T08:01:31;27.80;;;14.45;;
59824;SDS011;45703;50.898;6.054;2022-12-15T08:03:57;28.90;;;13.27;;
59824;SDS011;45703;50.898;6.054;2022-12-15T08:06:22;28.60;;;13.70;;
59824;SDS011;45703;50.898;6.054;2022-12-15T08:08:49;30.20;;;14.13;;
59824;SDS011;45703;50.898;6.054;2022-12-15T08:11:15;30.40;;;13.15;;
59824;SDS011;45703;50.898;6.054;2022-12-15T08:13:41;21.10;;;12.02;;
59824;SDS011;45703;50.898;6.054;2022-12-15T08:16:08;28.02;;;13.60;;
59824;SDS011;45703;50.898;6.054;2022-12-15T08:18:34;23.05;;;13.13;;
59824;SDS011;45703;50.898;6.054;2022-12-15T08:21:03;27.08;;;13.48;;
59824;SDS011;45703;50.898;6.054;2022-12-15T08:23:30;22.85;;;11.55;;
59824;SDS011;45703;50.898;6.054;2022-12-15T08:26:03;21.95;;;11.40;;
59824;SDS011;45703;50.898;6.054;2022-12-15T08:28:34;24.10;;;11.90;;
59824;SDS011;45703;50.898;6.054;2022-12-15T08:31:04;27.35;;;11.75;;
59824;SDS011;45703;50.898;6.054;2022-12-15T08:33:34;24.85;;;11.43;;
59824;SDS011;45703;50.898;6.054;2022-12-15T08:36:00;25.08;;;12.68;;
59824;SDS011;45703;50.898;6.054;2022-12-15T08:38:31;24.05;;;11.98;;
59824;SDS011;45703;50.898;6.054;2022-12-15T08:40:57;32.28;;;15.38;;
59824;SDS011;45703;50.898;6.054;2022-12-15T08:43:30;25.30;;;12.60;;
59824;SDS011;45703;50.898;6.054;2022-12-15T08:45:55;22.92;;;13.30;;
59824;SDS011;45703;50.898;6.054;2022-12-15T08:48:20;23.83;;;12.73;;
59824;SDS011;45703;50.898;6.054;2022-12-15T08:50:47;22.30;;;12.27;;
59824;SDS011;45703;50.898;6.054;2022-12-15T08:53:12;23.05;;;12.07;;
59824;SDS011;45703;50.898;6.054;2022-12-15T08:55:37;29.40;;;12.88;;
59824;SDS011;45703;50.898;6.054;2022-12-15T08:58:03;26.05;;;11.68;;
59824;SDS011;45703;50.898;6.054;2022-12-15T09:00:28;25.67;;;13.73;;
59824;SDS011;45703;50.898;6.054;2022-12-15T09:02:54;31.10;;;15.30;;
59824;SDS011;45703;50.898;6.054;2022-12-15T09:05:19;21.90;;;11.23;;
59824;SDS011;45703;50.898;6.054;2022-12-15T09:07:45;26.95;;;12.27;;
59824;SDS011;45703;50.898;6.054;2022-12-15T09:10:10;29.88;;;12.30;;
59824;SDS011;45703;50.898;6.054;2022-12-15T09:12:35;26.55;;;14.18;;
59824;SDS011;45703;50.898;6.054;2022-12-15T09:15:01;29.52;;;14.70;;
59824;SDS011;45703;50.898;6.054;2022-12-15T09:17:26;31.00;;;15.15;;
59824;SDS011;45703;50.898;6.054;2022-12-15T09:19:52;25.95;;;13.32;;
59824;SDS011;45703;50.898;6.054;2022-12-15T09:22:17;24.80;;;13.60;;
59824;SDS011;45703;50.898;6.054;2022-12-15T09:24:42;32.70;;;16.38;;
59824;SDS011;45703;50.898;6.054;2022-12-15T09:27:08;32.72;;;15.38;;
59824;SDS011;45703;50.898;6.054;2022-12-15T09:29:34;29.60;;;16.33;;
59824;SDS011;45703;50.898;6.054;2022-12-15T09:32:00;27.48;;;14.55;;
59824;SDS011;45703;50.898;6.054;2022-12-15T09:34:25;29.73;;;15.55;;
59824;SDS011;45703;50.898;6.054;2022-12-15T09:36:51;30.83;;;17.77;;
59824;SDS011;45703;50.898;6.054;2022-12-15T09:39:16;32.83;;;16.63;;
59824;SDS011;45703;50.898;6.054;2022-12-15T09:41:43;29.25;;;14.57;;
59824;SDS011;45703;50.898;6.054;2022-12-15T09:44:18;27.73;;;14.48;;
59824;SDS011;45703;50.898;6.054;2022-12-15T09:52:00;31.50;;;16.13;;
59824;SDS011;45703;50.898;6.054;2022-12-15T09:54:30;28.33;;;16.05;;
59824;SDS011;45703;50.898;6.054;2022-12-15T09:56:57;30.05;;;16.10;;
59824;SDS011;45703;50.898;6.054;2022-12-15T09:59:37;31.70;;;15.70;;
59824;SDS011;45703;50.898;6.054;2022-12-15T10:07:39;31.38;;;16.05;;
59824;SDS011;45703;50.898;6.054;2022-12-15T10:12:47;28.00;;;15.55;;
59824;SDS011;45703;50.898;6.054;2022-12-15T10:15:21;33.42;;;15.90;;
59824;SDS011;45703;50.898;6.054;2022-12-15T10:17:58;32.85;;;18.75;;
59824;SDS011;45703;50.898;6.054;2022-12-15T10:20:29;31.15;;;18.85;;
59824;SDS011;45703;50.898;6.054;2022-12-15T10:22:56;33.60;;;16.83;;
59824;SDS011;45703;50.898;6.054;2022-12-15T10:25:34;30.50;;;17.85;;
59824;SDS011;45703;50.898;6.054;2022-12-15T10:30:58;36.45;;;18.42;;
59824;SDS011;45703;50.898;6.054;2022-12-15T10:33:33;30.48;;;17.33;;
59824;SDS011;45703;50.898;6.054;2022-12-15T10:36:00;34.00;;;18.10;;
59824;SDS011;45703;50.898;6.054;2022-12-15T10:38:39;31.10;;;17.08;;
59824;SDS011;45703;50.898;6.054;2022-12-15T10:41:08;32.33;;;16.90;;
59824;SDS011;45703;50.898;6.054;2022-12-15T10:43:40;27.33;;;14.98;;
59824;SDS011;45703;50.898;6.054;2022-12-15T10:48:33;29.73;;;17.67;;
59824;SDS011;45703;50.898;6.054;2022-12-15T10:51:09;30.88;;;18.00;;
59824;SDS011;45703;50.898;6.054;2022-12-15T10:53:42;28.17;;;15.95;;
59824;SDS011;45703;50.898;6.054;2022-12-15T10:56:13;31.15;;;16.92;;
59824;SDS011;45703;50.898;6.054;2022-12-15T10:58:46;29.45;;;16.48;;
59824;SDS011;45703;50.898;6.054;2022-12-15T11:01:16;30.23;;;16.97;;
59824;SDS011;45703;50.898;6.054;2022-12-15T11:03:44;23.17;;;14.68;;
59824;SDS011;45703;50.898;6.054;2022-12-15T11:09:07;22.92;;;14.27;;
59824;SDS011;45703;50.898;6.054;2022-12-15T11:11:48;22.35;;;15.15;;
59824;SDS011;45703;50.898;6.054;2022-12-15T11:14:44;24.05;;;15.15;;
59824;SDS011;45703;50.898;6.054;2022-12-15T11:17:18;20.73;;;14.48;;
59824;SDS011;45703;50.898;6.054;2022-12-15T11:25:21;23.43;;;16.70;;
59824;SDS011;45703;50.898;6.054;2022-12-15T11:27:56;23.27;;;16.10;;
59824;SDS011;45703;50.898;6.054;2022-12-15T11:30:28;25.07;;;16.73;;
59824;SDS011;45703;50.898;6.054;2022-12-15T11:33:02;22.10;;;18.00;;
59824;SDS011;45703;50.898;6.054;2022-12-15T11:38:27;19.65;;;14.73;;
59824;SDS011;45703;50.898;6.054;2022-12-15T11:41:04;21.77;;;13.88;;
59824;SDS011;45703;50.898;6.054;2022-12-15T11:43:47;19.00;;;13.63;;
59824;SDS011;45703;50.898;6.054;2022-12-15T11:46:21;19.55;;;12.80;;
59824;SDS011;45703;50.898;6.054;2022-12-15T11:49:06;18.17;;;12.55;;
59824;SDS011;45703;50.898;6.054;2022-12-15T11:51:45;19.25;;;12.85;;
59824;SDS011;45703;50.898;6.054;2022-12-15T11:56:45;18.67;;;12.82;;
59824;SDS011;45703;50.898;6.054;2022-12-15T11:59:28;21.33;;;14.15;;
59824;SDS011;45703;50.898;6.054;2022-12-15T12:02:17;20.85;;;14.80;;
59824;SDS011;45703;50.898;6.054;2022-12-15T12:10:39;21.27;;;12.02;;
59824;SDS011;45703;50.898;6.054;2022-12-15T12:19:03;15.98;;;8.95;;
59824;SDS011;45703;50.898;6.054;2022-12-15T12:21:40;15.13;;;8.60;;
59824;SDS011;45703;50.898;6.054;2022-12-15T12:24:15;16.90;;;8.85;;
59824;SDS011;45703;50.898;6.054;2022-12-15T12:26:49;15.30;;;8.95;;
59824;SDS011;45703;50.898;6.054;2022-12-15T12:29:37;14.95;;;8.65;;
59824;SDS011;45703;50.898;6.054;2022-12-15T12:37:55;17.25;;;9.75;;
59824;SDS011;45703;50.898;6.054;2022-12-15T12:43:04;19.30;;;9.32;;
59824;SDS011;45703;50.898;6.054;2022-12-15T12:45:40;19.00;;;10.95;;
59824;SDS011;45703;50.898;6.054;2022-12-15T12:48:21;20.17;;;11.40;;
59824;SDS011;45703;50.898;6.054;2022-12-15T12:50:51;19.48;;;10.18;;
59824;SDS011;45703;50.898;6.054;2022-12-15T12:53:34;19.67;;;11.27;;
59824;SDS011;45703;50.898;6.054;2022-12-15T12:55:59;20.42;;;11.57;;
59824;SDS011;45703;50.898;6.054;2022-12-15T12:58:32;21.42;;;10.98;;
59824;SDS011;45703;50.898;6.054;2022-12-15T13:03:41;23.80;;;13.93;;
59824;SDS011;45703;50.898;6.054;2022-12-15T13:09:02;26.45;;;15.18;;
59824;SDS011;45703;50.898;6.054;2022-12-15T13:14:14;28.38;;;15.43;;
59824;SDS011;45703;50.898;6.054;2022-12-15T13:16:45;23.00;;;13.18;;
59824;SDS011;45703;50.898;6.054;2022-12-15T13:19:12;20.30;;;12.00;;
59824;SDS011;45703;50.898;6.054;2022-12-15T13:24:44;16.58;;;10.05;;
59824;SDS011;45703;50.898;6.054;2022-12-15T13:29:35;23.05;;;13.50;;
59824;SDS011;45703;50.898;6.054;2022-12-15T13:32:33;25.67;;;12.43;;
59824;SDS011;45703;50.898;6.054;2022-12-15T13:37:57;21.83;;;12.10;;
59824;SDS011;45703;50.898;6.054;2022-12-15T13:45:42;21.80;;;12.07;;
59824;SDS011;45703;50.898;6.054;2022-12-15T13:48:33;21.73;;;12.70;;
59824;SDS011;45703;50.898;6.054;2022-12-15T13:56:24;24.77;;;12.55;;
59824;SDS011;45703;50.898;6.054;2022-12-15T13:59:04;23.20;;;11.82;;
59824;SDS011;45703;50.898;6.054;2022-12-15T14:01:37;20.77;;;12.48;;
59824;SDS011;45703;50.898;6.054;2022-12-15T14:04:12;22.92;;;12.93;;
59824;SDS011;45703;50.898;6.054;2022-12-15T14:06:47;23.00;;;12.43;;
59824;SDS011;45703;50.898;6.054;2022-12-15T14:09:18;22.08;;;11.98;;
59824;SDS011;45703;50.898;6.054;2022-12-15T14:11:46;25.48;;;12.15;;
59824;SDS011;45703;50.898;6.054;2022-12-15T14:14:20;24.90;;;13.75;;
59824;SDS011;45703;50.898;6.054;2022-12-15T14:16:58;23.50;;;13.23;;
59824;SDS011;45703;50.898;6.054;2022-12-15T14:19:26;20.95;;;11.65;;
59824;SDS011;45703;50.898;6.054;2022-12-15T14:22:15;20.35;;;11.82;;
59824;SDS011;45703;50.898;6.054;2022-12-15T14:24:42;22.83;;;11.77;;
59824;SDS011;45703;50.898;6.054;2022-12-15T14:27:20;24.90;;;12.02;;
59824;SDS011;45703;50.898;6.054;2022-12-15T14:32:33;24.90;;;14.40;;
59824;SDS011;45703;50.898;6.054;2022-12-15T14:34:59;26.45;;;13.20;;
59824;SDS011;45703;50.898;6.054;2022-12-15T14:37:25;24.58;;;13.85;;
59824;SDS011;45703;50.898;6.054;2022-12-15T14:39:50;27.02;;;14.45;;
59824;SDS011;45703;50.898;6.054;2022-12-15T14:42:19;25.42;;;15.73;;
59824;SDS011;45703;50.898;6.054;2022-12-15T14:44:47;28.33;;;14.05;;
59824;SDS011;45703;50.898;6.054;2022-12-15T14:47:32;24.85;;;12.88;;
59824;SDS011;45703;50.898;6.054;2022-12-15T14:50:00;27.70;;;14.70;;
59824;SDS011;45703;50.898;6.054;2022-12-15T14:55:01;26.15;;;12.70;;
59824;SDS011;45703;50.898;6.054;2022-12-15T14:57:47;27.27;;;14.65;;
59824;SDS011;45703;50.898;6.054;2022-12-15T15:00:36;29.75;;;15.15;;
59824;SDS011;45703;50.898;6.054;2022-12-15T15:05:39;24.83;;;13.52;;
59824;SDS011;45703;50.898;6.054;2022-12-15T15:08:28;24.60;;;13.80;;
59824;SDS011;45703;50.898;6.054;2022-12-15T15:10:59;23.30;;;13.02;;
59824;SDS011;45703;50.898;6.054;2022-12-15T15:13:45;26.52;;;12.98;;
59824;SDS011;45703;50.898;6.054;2022-12-15T15:16:14;22.50;;;12.93;;
59824;SDS011;45703;50.898;6.054;2022-12-15T15:18:42;24.55;;;13.05;;
59824;SDS011;45703;50.898;6.054;2022-12-15T15:21:17;25.33;;;13.27;;
59824;SDS011;45703;50.898;6.054;2022-12-15T15:26:33;28.33;;;15.52;;
59824;SDS011;45703;50.898;6.054;2022-12-15T15:28:59;25.13;;;16.05;;
59824;SDS011;45703;50.898;6.054;2022-12-15T15:31:26;27.60;;;15.35;;
59824;SDS011;45703;50.898;6.054;2022-12-15T15:33:56;29.50;;;17.02;;
59824;SDS011;45703;50.898;6.054;2022-12-15T15:36:22;27.67;;;14.73;;
59824;SDS011;45703;50.898;6.054;2022-12-15T15:38:52;29.30;;;14.27;;
59824;SDS011;45703;50.898;6.054;2022-12-15T15:41:19;24.90;;;13.90;;
59824;SDS011;45703;50.898;6.054;2022-12-15T15:43:47;25.13;;;13.10;;
59824;SDS011;45703;50.898;6.054;2022-12-15T15:46:19;27.60;;;13.60;;
59824;SDS011;45703;50.898;6.054;2022-12-15T15:48:51;28.42;;;14.73;;
59824;SDS011;45703;50.898;6.054;2022-12-15T15:51:20;27.67;;;13.95;;
59824;SDS011;45703;50.898;6.054;2022-12-15T15:53:47;25.30;;;14.10;;
59824;SDS011;45703;50.898;6.054;2022-12-15T15:56:14;26.48;;;13.35;;
59824;SDS011;45703;50.898;6.054;2022-12-15T15:58:41;24.08;;;13.13;;
59824;SDS011;45703;50.898;6.054;2022-12-15T16:01:10;33.05;;;13.82;;
59824;SDS011;45703;50.898;6.054;2022-12-15T16:03:36;22.83;;;12.32;;
59824;SDS011;45703;50.898;6.054;2022-12-15T16:06:02;23.25;;;13.48;;
59824;SDS011;45703;50.898;6.054;2022-12-15T16:08:30;25.60;;;13.45;;
59824;SDS011;45703;50.898;6.054;2022-12-15T16:10:59;27.02;;;13.23;;
59824;SDS011;45703;50.898;6.054;2022-12-15T16:13:24;27.73;;;15.15;;
59824;SDS011;45703;50.898;6.054;2022-12-15T16:15:50;28.52;;;15.20;;
59824;SDS011;45703;50.898;6.054;2022-12-15T16:18:15;27.13;;;13.88;;
59824;SDS011;45703;50.898;6.054;2022-12-15T16:20:41;30.27;;;14.02;;
59824;SDS011;45703;50.898;6.054;2022-12-15T16:23:11;35.15;;;15.13;;
59824;SDS011;45703;50.898;6.054;2022-12-15T16:25:41;27.38;;;13.07;;
59824;SDS011;45703;50.898;6.054;2022-12-15T16:28:12;31.13;;;14.23;;
59824;SDS011;45703;50.898;6.054;2022-12-15T16:30:40;24.25;;;13.48;;
59824;SDS011;45703;50.898;6.054;2022-12-15T16:33:06;28.33;;;14.50;;
59824;SDS011;45703;50.898;6.054;2022-12-15T16:35:31;23.58;;;13.18;;
59824;SDS011;45703;50.898;6.054;2022-12-15T16:38:02;29.05;;;14.20;;
59824;SDS011;45703;50.898;6.054;2022-12-15T16:45:20;32.47;;;15.43;;
59824;SDS011;45703;50.898;6.054;2022-12-15T16:47:47;29.48;;;16.23;;
59824;SDS011;45703;50.898;6.054;2022-12-15T16:50:13;30.17;;;16.02;;
59824;SDS011;45703;50.898;6.054;2022-12-15T16:52:41;31.90;;;14.65;;